Bellevue, Iowa
Current Conditions -  °F | °C
As of 4:53 PM on Saturday 25 Oct 2014 (Local Time) from KDBQ Reporting Station
Clear Clear  
Wind Chill: 66°   Ceiling: Unl
Heat Index: 66°   Visibility: 10mi
Dew Point: 30°   Wind: 13mph
Humidity: 26%   Direction: 310°NW
Pressure: 30"   Gusts: NA
Location:  42.26°N, 90.42°W
Report Text: KDBQ 252153Z 31011KT 10SM CLR 19/M01 A3000 RMK AO2 SLP160 T01891011
Loading
Personal Weather Stations






























Interactive Weather Map
Tropical Storm Tracking
New forecast layout! Learn more

10-Day Weather Forecast

Advertisements
Track Severe Weather on mobile